sensor_id;sensor_type;location;lat;lon;timestamp;temperature;humidity
44229;DHT22;29904;51.058;5.378;2022-12-08T00:01:12;4.80;99.90
44229;DHT22;29904;51.058;5.378;2022-12-08T00:03:38;4.80;99.90
44229;DHT22;29904;51.058;5.378;2022-12-08T00:06:09;4.80;99.90
44229;DHT22;29904;51.058;5.378;2022-12-08T00:08:55;4.90;99.90
44229;DHT22;29904;51.058;5.378;2022-12-08T00:11:39;4.90;99.90
44229;DHT22;29904;51.058;5.378;2022-12-08T00:14:04;4.90;99.90
44229;DHT22;29904;51.058;5.378;2022-12-08T00:16:30;4.90;99.90
44229;DHT22;29904;51.058;5.378;2022-12-08T00:18:58;4.90;99.90
44229;DHT22;29904;51.058;5.378;2022-12-08T00:21:24;5.00;99.90
44229;DHT22;29904;51.058;5.378;2022-12-08T00:23:49;5.00;99.90
44229;DHT22;29904;51.058;5.378;2022-12-08T00:26:21;5.00;99.90
44229;DHT22;29904;51.058;5.378;2022-12-08T00:28:49;5.00;99.90
44229;DHT22;29904;51.058;5.378;2022-12-08T00:31:14;5.10;99.90
44229;DHT22;29904;51.058;5.378;2022-12-08T00:33:40;5.10;99.90
44229;DHT22;29904;51.058;5.378;2022-12-08T00:36:07;5.00;99.90
44229;DHT22;29904;51.058;5.378;2022-12-08T00:38:34;5.00;99.90
44229;DHT22;29904;51.058;5.378;2022-12-08T00:41:01;5.00;99.90
44229;DHT22;29904;51.058;5.378;2022-12-08T00:43:29;5.00;99.90
44229;DHT22;29904;51.058;5.378;2022-12-08T00:45:56;5.00;99.90
44229;DHT22;29904;51.058;5.378;2022-12-08T00:48:22;5.00;99.90
44229;DHT22;29904;51.058;5.378;2022-12-08T00:50:47;5.00;99.90
44229;DHT22;29904;51.058;5.378;2022-12-08T00:53:13;4.90;99.90
44229;DHT22;29904;51.058;5.378;2022-12-08T00:55:39;4.90;99.90
44229;DHT22;29904;51.058;5.378;2022-12-08T00:58:04;4.90;99.90
44229;DHT22;29904;51.058;5.378;2022-12-08T01:00:30;4.90;99.90
44229;DHT22;29904;51.058;5.378;2022-12-08T01:02:56;4.90;99.90
44229;DHT22;29904;51.058;5.378;2022-12-08T01:05:22;4.90;99.90
44229;DHT22;29904;51.058;5.378;2022-12-08T01:07:47;4.90;99.90
44229;DHT22;29904;51.058;5.378;2022-12-08T01:10:14;4.90;99.90
44229;DHT22;29904;51.058;5.378;2022-12-08T01:12:40;5.00;99.90
44229;DHT22;29904;51.058;5.378;2022-12-08T01:15:08;5.00;99.90
44229;DHT22;29904;51.058;5.378;2022-12-08T01:17:36;5.00;99.90
44229;DHT22;29904;51.058;5.378;2022-12-08T01:20:02;4.90;99.90
44229;DHT22;29904;51.058;5.378;2022-12-08T01:22:29;5.00;99.90
44229;DHT22;29904;51.058;5.378;2022-12-08T01:24:57;5.00;99.90
44229;DHT22;29904;51.058;5.378;2022-12-08T01:27:22;4.90;99.90
44229;DHT22;29904;51.058;5.378;2022-12-08T01:29:50;4.90;99.90
44229;DHT22;29904;51.058;5.378;2022-12-08T01:32:16;4.90;99.90
44229;DHT22;29904;51.058;5.378;2022-12-08T01:34:42;4.90;99.90
44229;DHT22;29904;51.058;5.378;2022-12-08T01:37:09;4.90;99.90
44229;DHT22;29904;51.058;5.378;2022-12-08T01:39:37;5.00;99.90
44229;DHT22;29904;51.058;5.378;2022-12-08T01:42:02;5.00;99.90
44229;DHT22;29904;51.058;5.378;2022-12-08T01:47:02;4.90;99.90
44229;DHT22;29904;51.058;5.378;2022-12-08T01:49:31;4.90;99.90
44229;DHT22;29904;51.058;5.378;2022-12-08T01:52:00;4.90;99.90
44229;DHT22;29904;51.058;5.378;2022-12-08T01:54:31;4.90;99.90
44229;DHT22;29904;51.058;5.378;2022-12-08T01:57:02;4.90;99.90
44229;DHT22;29904;51.058;5.378;2022-12-08T01:59:33;4.90;99.90
44229;DHT22;29904;51.058;5.378;2022-12-08T02:02:01;5.00;99.90
44229;DHT22;29904;51.058;5.378;2022-12-08T02:04:26;4.90;99.90
44229;DHT22;29904;51.058;5.378;2022-12-08T02:06:52;4.90;99.90
44229;DHT22;29904;51.058;5.378;2022-12-08T02:09:19;5.00;99.90
44229;DHT22;29904;51.058;5.378;2022-12-08T02:11:46;5.00;99.90
44229;DHT22;29904;51.058;5.378;2022-12-08T02:14:12;5.00;99.90
44229;DHT22;29904;51.058;5.378;2022-12-08T02:25:45;4.90;99.90
44229;DHT22;29904;51.058;5.378;2022-12-08T02:36:50;4.90;99.90
44229;DHT22;29904;51.058;5.378;2022-12-08T02:42:15;4.90;99.90
44229;DHT22;29904;51.058;5.378;2022-12-08T02:45:03;4.90;99.90
44229;DHT22;29904;51.058;5.378;2022-12-08T02:47:31;4.90;99.90
44229;DHT22;29904;51.058;5.378;2022-12-08T02:49:58;4.90;99.90
44229;DHT22;29904;51.058;5.378;2022-12-08T02:54:55;4.90;99.90
44229;DHT22;29904;51.058;5.378;2022-12-08T03:00:14;4.90;99.90
44229;DHT22;29904;51.058;5.378;2022-12-08T03:02:42;4.90;99.90
44229;DHT22;29904;51.058;5.378;2022-12-08T03:08:19;4.90;99.90
44229;DHT22;29904;51.058;5.378;2022-12-08T03:13:46;4.80;99.90
44229;DHT22;29904;51.058;5.378;2022-12-08T03:16:16;4.80;99.90
44229;DHT22;29904;51.058;5.378;2022-12-08T03:18:47;4.80;99.90
44229;DHT22;29904;51.058;5.378;2022-12-08T03:21:16;4.80;99.90
44229;DHT22;29904;51.058;5.378;2022-12-08T03:23:43;4.80;99.90
44229;DHT22;29904;51.058;5.378;2022-12-08T03:26:33;4.80;99.90
44229;DHT22;29904;51.058;5.378;2022-12-08T03:29:00;4.80;99.90
44229;DHT22;29904;51.058;5.378;2022-12-08T03:31:30;4.80;99.90
44229;DHT22;29904;51.058;5.378;2022-12-08T03:33:58;4.90;99.90
44229;DHT22;29904;51.058;5.378;2022-12-08T03:36:25;4.80;99.90
44229;DHT22;29904;51.058;5.378;2022-12-08T03:38:52;4.80;99.90
44229;DHT22;29904;51.058;5.378;2022-12-08T03:41:20;4.70;99.90
44229;DHT22;29904;51.058;5.378;2022-12-08T03:43:55;4.70;99.90
44229;DHT22;29904;51.058;5.378;2022-12-08T03:46:24;4.80;99.90
44229;DHT22;29904;51.058;5.378;2022-12-08T03:48:50;4.80;99.90
44229;DHT22;29904;51.058;5.378;2022-12-08T03:51:16;4.80;99.90
44229;DHT22;29904;51.058;5.378;2022-12-08T03:53:42;4.80;99.90
44229;DHT22;29904;51.058;5.378;2022-12-08T03:56:24;4.80;99.90
44229;DHT22;29904;51.058;5.378;2022-12-08T03:58:50;4.80;99.90
44229;DHT22;29904;51.058;5.378;2022-12-08T04:01:16;4.80;99.90
44229;DHT22;29904;51.058;5.378;2022-12-08T04:03:42;4.80;99.90
44229;DHT22;29904;51.058;5.378;2022-12-08T04:06:10;4.70;99.90
44229;DHT22;29904;51.058;5.378;2022-12-08T04:08:36;4.70;99.90
44229;DHT22;29904;51.058;5.378;2022-12-08T04:11:02;4.70;99.90
44229;DHT22;29904;51.058;5.378;2022-12-08T04:13:28;4.70;99.90
44229;DHT22;29904;51.058;5.378;2022-12-08T04:15:53;4.80;99.90
44229;DHT22;29904;51.058;5.378;2022-12-08T04:18:19;4.70;99.90
44229;DHT22;29904;51.058;5.378;2022-12-08T04:20:47;4.70;99.90
44229;DHT22;29904;51.058;5.378;2022-12-08T04:23:13;4.70;99.90
44229;DHT22;29904;51.058;5.378;2022-12-08T04:25:39;4.70;99.90
44229;DHT22;29904;51.058;5.378;2022-12-08T04:28:05;4.70;99.90
44229;DHT22;29904;51.058;5.378;2022-12-08T04:30:31;4.70;99.90
44229;DHT22;29904;51.058;5.378;2022-12-08T04:32:59;4.70;99.90
44229;DHT22;29904;51.058;5.378;2022-12-08T04:35:25;4.70;99.90
44229;DHT22;29904;51.058;5.378;2022-12-08T04:37:50;4.70;99.90
44229;DHT22;29904;51.058;5.378;2022-12-08T04:40:17;4.60;99.90
44229;DHT22;29904;51.058;5.378;2022-12-08T04:42:43;4.60;99.90
44229;DHT22;29904;51.058;5.378;2022-12-08T04:45:09;4.60;99.90
44229;DHT22;29904;51.058;5.378;2022-12-08T04:47:37;4.60;99.90
44229;DHT22;29904;51.058;5.378;2022-12-08T04:50:03;4.60;99.90
44229;DHT22;29904;51.058;5.378;2022-12-08T04:52:29;4.60;99.90
44229;DHT22;29904;51.058;5.378;2022-12-08T04:54:55;4.60;99.90
44229;DHT22;29904;51.058;5.378;2022-12-08T04:57:21;4.50;99.90
44229;DHT22;29904;51.058;5.378;2022-12-08T04:59:46;4.50;99.90
44229;DHT22;29904;51.058;5.378;2022-12-08T05:02:12;4.50;99.90
44229;DHT22;29904;51.058;5.378;2022-12-08T05:04:38;4.50;99.90
44229;DHT22;29904;51.058;5.378;2022-12-08T05:07:04;4.50;99.90
44229;DHT22;29904;51.058;5.378;2022-12-08T05:09:32;4.50;99.90
44229;DHT22;29904;51.058;5.378;2022-12-08T05:11:59;4.40;99.90
44229;DHT22;29904;51.058;5.378;2022-12-08T05:14:25;4.40;99.90
44229;DHT22;29904;51.058;5.378;2022-12-08T05:16:51;4.40;99.90
44229;DHT22;29904;51.058;5.378;2022-12-08T05:19:18;4.40;99.90
44229;DHT22;29904;51.058;5.378;2022-12-08T05:21:44;4.40;99.90
44229;DHT22;29904;51.058;5.378;2022-12-08T05:24:10;4.30;99.90
44229;DHT22;29904;51.058;5.378;2022-12-08T05:26:38;4.30;99.90
44229;DHT22;29904;51.058;5.378;2022-12-08T05:29:04;4.30;99.90
44229;DHT22;29904;51.058;5.378;2022-12-08T05:31:30;4.40;99.90
44229;DHT22;29904;51.058;5.378;2022-12-08T05:33:56;4.40;99.90
44229;DHT22;29904;51.058;5.378;2022-12-08T05:36:21;4.40;99.90
44229;DHT22;29904;51.058;5.378;2022-12-08T05:38:47;4.40;99.90
44229;DHT22;29904;51.058;5.378;2022-12-08T05:41:18;4.40;99.90
44229;DHT22;29904;51.058;5.378;2022-12-08T05:43:45;4.50;99.90
44229;DHT22;29904;51.058;5.378;2022-12-08T05:46:11;4.40;99.90
44229;DHT22;29904;51.058;5.378;2022-12-08T05:48:37;4.40;99.90
44229;DHT22;29904;51.058;5.378;2022-12-08T05:51:03;4.40;99.90
44229;DHT22;29904;51.058;5.378;2022-12-08T05:53:29;4.40;99.90
44229;DHT22;29904;51.058;5.378;2022-12-08T05:55:55;4.40;99.90
44229;DHT22;29904;51.058;5.378;2022-12-08T05:58:21;4.40;99.90
44229;DHT22;29904;51.058;5.378;2022-12-08T06:00:48;4.40;99.90
44229;DHT22;29904;51.058;5.378;2022-12-08T06:03:16;4.40;99.90
44229;DHT22;29904;51.058;5.378;2022-12-08T06:05:44;4.40;99.90
44229;DHT22;29904;51.058;5.378;2022-12-08T06:08:11;4.40;99.90
44229;DHT22;29904;51.058;5.378;2022-12-08T06:10:41;4.40;99.90
44229;DHT22;29904;51.058;5.378;2022-12-08T06:13:07;4.30;99.90
44229;DHT22;29904;51.058;5.378;2022-12-08T06:15:37;4.20;99.90
44229;DHT22;29904;51.058;5.378;2022-12-08T06:18:03;4.00;99.90
44229;DHT22;29904;51.058;5.378;2022-12-08T06:20:29;4.00;99.90
44229;DHT22;29904;51.058;5.378;2022-12-08T06:22:55;3.90;99.90
44229;DHT22;29904;51.058;5.378;2022-12-08T06:25:22;3.90;99.90
44229;DHT22;29904;51.058;5.378;2022-12-08T06:27:48;3.90;99.90
44229;DHT22;29904;51.058;5.378;2022-12-08T06:30:14;3.90;99.90
44229;DHT22;29904;51.058;5.378;2022-12-08T06:32:41;3.90;99.90
44229;DHT22;29904;51.058;5.378;2022-12-08T06:35:07;4.00;99.90
44229;DHT22;29904;51.058;5.378;2022-12-08T06:37:34;3.90;99.90
44229;DHT22;29904;51.058;5.378;2022-12-08T06:39:59;3.90;99.90
44229;DHT22;29904;51.058;5.378;2022-12-08T06:42:25;3.90;99.90
44229;DHT22;29904;51.058;5.378;2022-12-08T06:45:11;3.90;99.90
44229;DHT22;29904;51.058;5.378;2022-12-08T06:47:37;3.90;99.90
44229;DHT22;29904;51.058;5.378;2022-12-08T06:50:03;4.00;99.90
44229;DHT22;29904;51.058;5.378;2022-12-08T06:52:29;3.90;99.90
44229;DHT22;29904;51.058;5.378;2022-12-08T06:54:55;3.90;99.90
44229;DHT22;29904;51.058;5.378;2022-12-08T06:57:21;3.90;99.90
44229;DHT22;29904;51.058;5.378;2022-12-08T06:59:48;3.90;99.90
44229;DHT22;29904;51.058;5.378;2022-12-08T07:02:14;3.90;99.90
44229;DHT22;29904;51.058;5.378;2022-12-08T07:04:39;3.90;99.90
44229;DHT22;29904;51.058;5.378;2022-12-08T07:07:07;3.90;99.90
44229;DHT22;29904;51.058;5.378;2022-12-08T07:09:33;3.90;99.90
44229;DHT22;29904;51.058;5.378;2022-12-08T07:11:59;4.00;99.90
44229;DHT22;29904;51.058;5.378;2022-12-08T07:14:24;4.00;99.90
44229;DHT22;29904;51.058;5.378;2022-12-08T07:16:51;4.00;99.90
44229;DHT22;29904;51.058;5.378;2022-12-08T07:19:17;4.00;99.90
44229;DHT22;29904;51.058;5.378;2022-12-08T07:21:42;4.00;99.90
44229;DHT22;29904;51.058;5.378;2022-12-08T07:24:08;4.00;99.90
44229;DHT22;29904;51.058;5.378;2022-12-08T07:26:34;3.90;99.90
44229;DHT22;29904;51.058;5.378;2022-12-08T07:29:00;4.00;99.90
44229;DHT22;29904;51.058;5.378;2022-12-08T07:31:26;4.00;99.90
44229;DHT22;29904;51.058;5.378;2022-12-08T07:33:54;4.00;99.90
44229;DHT22;29904;51.058;5.378;2022-12-08T07:36:22;4.00;99.90
44229;DHT22;29904;51.058;5.378;2022-12-08T07:38:48;4.00;99.90
44229;DHT22;29904;51.058;5.378;2022-12-08T07:41:16;4.10;99.90
44229;DHT22;29904;51.058;5.378;2022-12-08T07:43:43;4.10;99.90
44229;DHT22;29904;51.058;5.378;2022-12-08T07:46:18;4.10;99.90
44229;DHT22;29904;51.058;5.378;2022-12-08T07:48:44;4.00;99.90
44229;DHT22;29904;51.058;5.378;2022-12-08T07:51:12;4.10;99.90
44229;DHT22;29904;51.058;5.378;2022-12-08T07:53:43;4.00;99.90
44229;DHT22;29904;51.058;5.378;2022-12-08T07:56:11;4.00;99.90
44229;DHT22;29904;51.058;5.378;2022-12-08T07:58:37;4.10;99.90
44229;DHT22;29904;51.058;5.378;2022-12-08T08:01:03;4.10;99.90
44229;DHT22;29904;51.058;5.378;2022-12-08T08:03:29;4.10;99.90
44229;DHT22;29904;51.058;5.378;2022-12-08T08:06:00;4.10;99.90
44229;DHT22;29904;51.058;5.378;2022-12-08T08:08:26;4.20;99.90
44229;DHT22;29904;51.058;5.378;2022-12-08T08:10:52;4.20;99.90
44229;DHT22;29904;51.058;5.378;2022-12-08T08:13:18;4.20;99.90
44229;DHT22;29904;51.058;5.378;2022-12-08T08:15:43;4.20;99.90
44229;DHT22;29904;51.058;5.378;2022-12-08T08:18:09;4.20;99.90
44229;DHT22;29904;51.058;5.378;2022-12-08T08:20:37;4.30;99.90
44229;DHT22;29904;51.058;5.378;2022-12-08T08:23:02;4.20;99.90
44229;DHT22;29904;51.058;5.378;2022-12-08T08:25:28;4.30;99.90
44229;DHT22;29904;51.058;5.378;2022-12-08T08:27:54;4.30;99.90
44229;DHT22;29904;51.058;5.378;2022-12-08T08:30:20;4.30;99.90
44229;DHT22;29904;51.058;5.378;2022-12-08T08:32:46;4.30;99.90
44229;DHT22;29904;51.058;5.378;2022-12-08T08:35:14;4.30;99.90
44229;DHT22;29904;51.058;5.378;2022-12-08T08:37:40;4.20;99.90
44229;DHT22;29904;51.058;5.378;2022-12-08T08:40:06;4.20;99.90
44229;DHT22;29904;51.058;5.378;2022-12-08T08:42:34;4.20;99.90
44229;DHT22;29904;51.058;5.378;2022-12-08T08:45:03;4.20;99.90
44229;DHT22;29904;51.058;5.378;2022-12-08T08:47:29;4.20;99.90
44229;DHT22;29904;51.058;5.378;2022-12-08T08:49:57;4.20;99.90
44229;DHT22;29904;51.058;5.378;2022-12-08T08:52:23;4.20;99.90
44229;DHT22;29904;51.058;5.378;2022-12-08T08:54:49;4.20;99.90
44229;DHT22;29904;51.058;5.378;2022-12-08T08:57:14;4.20;99.90
44229;DHT22;29904;51.058;5.378;2022-12-08T08:59:40;4.20;99.90
44229;DHT22;29904;51.058;5.378;2022-12-08T09:02:07;4.20;99.90
44229;DHT22;29904;51.058;5.378;2022-12-08T09:04:34;4.20;99.90
44229;DHT22;29904;51.058;5.378;2022-12-08T09:07:00;4.30;99.90
44229;DHT22;29904;51.058;5.378;2022-12-08T09:09:26;4.30;99.90
44229;DHT22;29904;51.058;5.378;2022-12-08T09:11:54;4.30;99.90
44229;DHT22;29904;51.058;5.378;2022-12-08T09:14:21;4.30;99.90
44229;DHT22;29904;51.058;5.378;2022-12-08T09:16:48;4.40;99.90
44229;DHT22;29904;51.058;5.378;2022-12-08T09:19:16;4.40;99.90
44229;DHT22;29904;51.058;5.378;2022-12-08T09:21:41;4.30;99.90
44229;DHT22;29904;51.058;5.378;2022-12-08T09:24:07;4.30;99.90
44229;DHT22;29904;51.058;5.378;2022-12-08T09:26:42;4.40;99.90
44229;DHT22;29904;51.058;5.378;2022-12-08T09:29:09;4.40;99.90
44229;DHT22;29904;51.058;5.378;2022-12-08T09:31:35;4.40;99.90
44229;DHT22;29904;51.058;5.378;2022-12-08T09:34:03;4.40;99.90
44229;DHT22;29904;51.058;5.378;2022-12-08T09:36:29;4.30;99.90
44229;DHT22;29904;51.058;5.378;2022-12-08T09:38:55;4.40;99.90
44229;DHT22;29904;51.058;5.378;2022-12-08T09:41:44;4.40;99.90
44229;DHT22;29904;51.058;5.378;2022-12-08T09:52:59;4.40;99.90
44229;DHT22;29904;51.058;5.378;2022-12-08T09:55:40;4.50;99.90
44229;DHT22;29904;51.058;5.378;2022-12-08T09:58:14;4.60;99.90
44229;DHT22;29904;51.058;5.378;2022-12-08T10:00:42;4.60;99.90
44229;DHT22;29904;51.058;5.378;2022-12-08T10:03:13;4.70;99.90
44229;DHT22;29904;51.058;5.378;2022-12-08T10:05:48;4.80;99.90
44229;DHT22;29904;51.058;5.378;2022-12-08T10:08:24;4.90;99.90
44229;DHT22;29904;51.058;5.378;2022-12-08T10:10:57;4.90;99.90
44229;DHT22;29904;51.058;5.378;2022-12-08T10:13:43;5.10;99.90
44229;DHT22;29904;51.058;5.378;2022-12-08T10:16:21;5.20;99.90
44229;DHT22;29904;51.058;5.378;2022-12-08T10:18:55;5.20;99.90
44229;DHT22;29904;51.058;5.378;2022-12-08T10:21:24;5.20;99.90
44229;DHT22;29904;51.058;5.378;2022-12-08T10:23:56;5.20;99.90
44229;DHT22;29904;51.058;5.378;2022-12-08T10:26:23;5.20;99.90
44229;DHT22;29904;51.058;5.378;2022-12-08T10:28:49;5.10;99.90
44229;DHT22;29904;51.058;5.378;2022-12-08T10:31:23;5.10;99.90
44229;DHT22;29904;51.058;5.378;2022-12-08T10:34:00;5.10;99.90
44229;DHT22;29904;51.058;5.378;2022-12-08T10:36:58;5.00;99.90
44229;DHT22;29904;51.058;5.378;2022-12-08T10:39:33;5.00;99.90
44229;DHT22;29904;51.058;5.378;2022-12-08T10:42:15;5.00;99.90
44229;DHT22;29904;51.058;5.378;2022-12-08T10:44:56;5.10;99.90
44229;DHT22;29904;51.058;5.378;2022-12-08T10:47:25;5.10;99.90
44229;DHT22;29904;51.058;5.378;2022-12-08T10:50:27;5.20;99.90
44229;DHT22;29904;51.058;5.378;2022-12-08T10:55:50;5.20;99.90
44229;DHT22;29904;51.058;5.378;2022-12-08T10:58:30;5.30;99.90
44229;DHT22;29904;51.058;5.378;2022-12-08T11:01:15;5.20;99.90
44229;DHT22;29904;51.058;5.378;2022-12-08T11:03:43;5.20;99.90
44229;DHT22;29904;51.058;5.378;2022-12-08T11:08:54;5.30;99.90
44229;DHT22;29904;51.058;5.378;2022-12-08T11:11:21;5.40;99.90
44229;DHT22;29904;51.058;5.378;2022-12-08T11:13:49;5.40;99.90
44229;DHT22;29904;51.058;5.378;2022-12-08T11:16:17;5.50;99.90
44229;DHT22;29904;51.058;5.378;2022-12-08T11:18:46;5.40;99.90
44229;DHT22;29904;51.058;5.378;2022-12-08T11:21:16;5.30;99.90
44229;DHT22;29904;51.058;5.378;2022-12-08T11:23:46;5.30;99.90
44229;DHT22;29904;51.058;5.378;2022-12-08T11:26:22;5.20;99.90
44229;DHT22;29904;51.058;5.378;2022-12-08T11:28:51;5.30;99.90
44229;DHT22;29904;51.058;5.378;2022-12-08T11:33:47;5.10;99.90
44229;DHT22;29904;51.058;5.378;2022-12-08T11:36:15;5.00;99.90
44229;DHT22;29904;51.058;5.378;2022-12-08T11:38:44;4.90;99.90
44229;DHT22;29904;51.058;5.378;2022-12-08T11:41:15;4.90;99.90
44229;DHT22;29904;51.058;5.378;2022-12-08T11:44:03;5.00;99.90
44229;DHT22;29904;51.058;5.378;2022-12-08T11:47:00;5.00;99.90
44229;DHT22;29904;51.058;5.378;2022-12-08T11:49:35;5.10;99.90
44229;DHT22;29904;51.058;5.378;2022-12-08T11:52:11;5.30;99.90
44229;DHT22;29904;51.058;5.378;2022-12-08T11:55:00;5.30;99.90
44229;DHT22;29904;51.058;5.378;2022-12-08T11:57:28;5.50;99.90
44229;DHT22;29904;51.058;5.378;2022-12-08T11:59:56;5.50;99.90
44229;DHT22;29904;51.058;5.378;2022-12-08T12:02:31;5.50;99.90
44229;DHT22;29904;51.058;5.378;2022-12-08T12:05:22;5.40;99.90
44229;DHT22;29904;51.058;5.378;2022-12-08T12:19:27;5.40;99.90
44229;DHT22;29904;51.058;5.378;2022-12-08T12:22:11;5.40;99.90
44229;DHT22;29904;51.058;5.378;2022-12-08T12:24:39;5.50;99.90
44229;DHT22;29904;51.058;5.378;2022-12-08T12:30:00;5.70;99.90
44229;DHT22;29904;51.058;5.378;2022-12-08T12:33:00;5.80;99.90
44229;DHT22;29904;51.058;5.378;2022-12-08T12:35:37;5.80;99.90
44229;DHT22;29904;51.058;5.378;2022-12-08T12:38:14;5.80;99.90
44229;DHT22;29904;51.058;5.378;2022-12-08T12:41:02;5.90;99.90
44229;DHT22;29904;51.058;5.378;2022-12-08T12:43:32;5.90;99.90
44229;DHT22;29904;51.058;5.378;2022-12-08T12:48:50;5.90;99.90
44229;DHT22;29904;51.058;5.378;2022-12-08T12:51:45;5.80;99.90
44229;DHT22;29904;51.058;5.378;2022-12-08T12:54:23;5.80;99.90
44229;DHT22;29904;51.058;5.378;2022-12-08T13:01:57;5.70;99.90
44229;DHT22;29904;51.058;5.378;2022-12-08T13:15:53;5.70;99.90
44229;DHT22;29904;51.058;5.378;2022-12-08T13:18:36;5.60;99.90
44229;DHT22;29904;51.058;5.378;2022-12-08T13:21:13;5.70;99.90
44229;DHT22;29904;51.058;5.378;2022-12-08T13:23:46;5.70;99.90
44229;DHT22;29904;51.058;5.378;2022-12-08T13:37:01;5.90;99.90
44229;DHT22;29904;51.058;5.378;2022-12-08T13:44:45;5.90;99.90
44229;DHT22;29904;51.058;5.378;2022-12-08T13:47:15;5.90;99.90
44229;DHT22;29904;51.058;5.378;2022-12-08T13:49:57;5.80;99.90
44229;DHT22;29904;51.058;5.378;2022-12-08T13:52:37;5.80;99.90
44229;DHT22;29904;51.058;5.378;2022-12-08T13:55:18;5.90;99.90
44229;DHT22;29904;51.058;5.378;2022-12-08T13:57:47;5.80;99.90
44229;DHT22;29904;51.058;5.378;2022-12-08T14:00:18;5.80;99.90
44229;DHT22;29904;51.058;5.378;2022-12-08T14:02:46;5.80;99.90
44229;DHT22;29904;51.058;5.378;2022-12-08T14:05:12;5.70;99.90
44229;DHT22;29904;51.058;5.378;2022-12-08T14:07:40;5.70;99.90
44229;DHT22;29904;51.058;5.378;2022-12-08T14:10:17;5.70;99.90
44229;DHT22;29904;51.058;5.378;2022-12-08T14:12:47;5.70;99.90
44229;DHT22;29904;51.058;5.378;2022-12-08T14:15:16;5.70;99.90
44229;DHT22;29904;51.058;5.378;2022-12-08T14:17:53;5.60;99.90
44229;DHT22;29904;51.058;5.378;2022-12-08T14:20:26;5.60;99.90
44229;DHT22;29904;51.058;5.378;2022-12-08T14:22:52;5.60;99.90
44229;DHT22;29904;51.058;5.378;2022-12-08T14:25:19;5.60;99.90
44229;DHT22;29904;51.058;5.378;2022-12-08T14:27:46;5.50;99.90
44229;DHT22;29904;51.058;5.378;2022-12-08T14:37:41;5.40;99.90
44229;DHT22;29904;51.058;5.378;2022-12-08T14:40:34;5.40;99.90
44229;DHT22;29904;51.058;5.378;2022-12-08T14:48:40;5.40;99.90
44229;DHT22;29904;51.058;5.378;2022-12-08T14:51:29;5.40;99.90
44229;DHT22;29904;51.058;5.378;2022-12-08T14:54:00;5.40;99.90
44229;DHT22;29904;51.058;5.378;2022-12-08T15:02:10;5.30;99.90
44229;DHT22;29904;51.058;5.378;2022-12-08T15:04:38;5.30;99.90
44229;DHT22;29904;51.058;5.378;2022-12-08T15:07:17;5.30;99.90
44229;DHT22;29904;51.058;5.378;2022-12-08T15:09:46;5.30;99.90
44229;DHT22;29904;51.058;5.378;2022-12-08T15:15:01;5.20;99.90
44229;DHT22;29904;51.058;5.378;2022-12-08T15:17:36;5.20;99.90
44229;DHT22;29904;51.058;5.378;2022-12-08T15:22:53;5.10;99.90
44229;DHT22;29904;51.058;5.378;2022-12-08T15:25:22;5.10;99.90
44229;DHT22;29904;51.058;5.378;2022-12-08T15:27:48;5.10;99.90
44229;DHT22;29904;51.058;5.378;2022-12-08T15:30:16;5.10;99.90
44229;DHT22;29904;51.058;5.378;2022-12-08T15:32:42;5.10;99.90
44229;DHT22;29904;51.058;5.378;2022-12-08T15:35:12;5.10;99.90
44229;DHT22;29904;51.058;5.378;2022-12-08T15:37:39;5.00;99.90
44229;DHT22;29904;51.058;5.378;2022-12-08T15:40:06;5.00;99.90
44229;DHT22;29904;51.058;5.378;2022-12-08T15:42:31;4.90;99.90
44229;DHT22;29904;51.058;5.378;2022-12-08T15:44:57;4.90;99.90
44229;DHT22;29904;51.058;5.378;2022-12-08T15:47:23;4.90;99.90
44229;DHT22;29904;51.058;5.378;2022-12-08T15:49:50;4.90;99.90
44229;DHT22;29904;51.058;5.378;2022-12-08T15:52:22;4.80;99.90
44229;DHT22;29904;51.058;5.378;2022-12-08T15:54:48;4.80;99.90
44229;DHT22;29904;51.058;5.378;2022-12-08T15:57:28;4.80;99.90
44229;DHT22;29904;51.058;5.378;2022-12-08T15:59:54;4.70;99.90
44229;DHT22;29904;51.058;5.378;2022-12-08T16:02:20;4.70;99.90
44229;DHT22;29904;51.058;5.378;2022-12-08T16:04:47;4.60;99.90
44229;DHT22;29904;51.058;5.378;2022-12-08T16:07:27;4.60;99.90
44229;DHT22;29904;51.058;5.378;2022-12-08T16:09:54;4.60;99.90
44229;DHT22;29904;51.058;5.378;2022-12-08T16:12:25;4.60;99.90
44229;DHT22;29904;51.058;5.378;2022-12-08T16:15:12;4.50;99.90
44229;DHT22;29904;51.058;5.378;2022-12-08T16:17:39;4.40;99.90
44229;DHT22;29904;51.058;5.378;2022-12-08T16:20:16;4.40;99.90
44229;DHT22;29904;51.058;5.378;2022-12-08T16:22:43;4.40;99.90
44229;DHT22;29904;51.058;5.378;2022-12-08T16:25:09;4.40;99.90
44229;DHT22;29904;51.058;5.378;2022-12-08T16:27:36;4.40;99.90
44229;DHT22;29904;51.058;5.378;2022-12-08T16:30:04;4.40;99.90
44229;DHT22;29904;51.058;5.378;2022-12-08T16:32:32;4.40;99.90
44229;DHT22;29904;51.058;5.378;2022-12-08T16:34:57;4.30;99.90
44229;DHT22;29904;51.058;5.378;2022-12-08T16:37:25;4.30;99.90
44229;DHT22;29904;51.058;5.378;2022-12-08T16:39:54;4.20;99.90
44229;DHT22;29904;51.058;5.378;2022-12-08T16:42:29;4.20;99.90
44229;DHT22;29904;51.058;5.378;2022-12-08T16:45:12;4.30;99.90
44229;DHT22;29904;51.058;5.378;2022-12-08T16:47:41;4.20;99.90
44229;DHT22;29904;51.058;5.378;2022-12-08T16:50:10;4.10;99.90
44229;DHT22;29904;51.058;5.378;2022-12-08T16:52:36;4.10;99.90
44229;DHT22;29904;51.058;5.378;2022-12-08T16:55:01;4.10;99.90
44229;DHT22;29904;51.058;5.378;2022-12-08T16:57:27;4.20;99.90
44229;DHT22;29904;51.058;5.378;2022-12-08T16:59:53;4.20;99.90
44229;DHT22;29904;51.058;5.378;2022-12-08T17:02:18;4.30;99.90
44229;DHT22;29904;51.058;5.378;2022-12-08T17:04:46;4.20;99.90
44229;DHT22;29904;51.058;5.378;2022-12-08T17:07:12;4.20;99.90
44229;DHT22;29904;51.058;5.378;2022-12-08T17:09:38;4.20;99.90
44229;DHT22;29904;51.058;5.378;2022-12-08T17:12:03;4.20;99.90
44229;DHT22;29904;51.058;5.378;2022-12-08T17:14:32;4.20;99.90
44229;DHT22;29904;51.058;5.378;2022-12-08T17:16:58;4.30;99.90
44229;DHT22;29904;51.058;5.378;2022-12-08T17:19:26;4.20;99.90
44229;DHT22;29904;51.058;5.378;2022-12-08T17:21:52;4.20;99.90
44229;DHT22;29904;51.058;5.378;2022-12-08T17:24:17;4.20;99.90
44229;DHT22;29904;51.058;5.378;2022-12-08T17:26:45;4.20;99.90
44229;DHT22;29904;51.058;5.378;2022-12-08T17:29:11;4.10;99.90
44229;DHT22;29904;51.058;5.378;2022-12-08T17:31:37;4.00;99.90
44229;DHT22;29904;51.058;5.378;2022-12-08T17:34:04;3.90;99.90
44229;DHT22;29904;51.058;5.378;2022-12-08T17:36:32;3.80;99.90
44229;DHT22;29904;51.058;5.378;2022-12-08T17:38:59;3.80;99.90
44229;DHT22;29904;51.058;5.378;2022-12-08T17:41:25;3.70;99.90
44229;DHT22;29904;51.058;5.378;2022-12-08T17:43:51;3.70;99.90
44229;DHT22;29904;51.058;5.378;2022-12-08T17:46:17;3.70;99.90
44229;DHT22;29904;51.058;5.378;2022-12-08T17:48:43;3.60;99.90
44229;DHT22;29904;51.058;5.378;2022-12-08T17:51:09;3.60;99.90
44229;DHT22;29904;51.058;5.378;2022-12-08T17:53:35;3.70;99.90
44229;DHT22;29904;51.058;5.378;2022-12-08T17:56:02;3.70;99.90
44229;DHT22;29904;51.058;5.378;2022-12-08T17:58:28;3.70;99.90
44229;DHT22;29904;51.058;5.378;2022-12-08T18:00:55;3.70;99.90
44229;DHT22;29904;51.058;5.378;2022-12-08T18:03:21;3.80;99.90